Time;durP1;ratioP1;P1;durP2;ratioP2;P2;SDS_P1;SDS_P2;PMS_P1;PMS_P2;Temp;Humidity;BMP_temperature;BMP_pressure;BME280_temperature;BME280_humidity;BME280_pressure;Samples;Min_cycle;Max_cycle;Signal;HPM_P1;HPM_P2
2022/12/21 00:00:08;;;;;;;36.70;21.60;;;;;;;2.42;84.70;100481.23;98957;1355;601129;-60
2022/12/21 00:03:07;;;;;;;39.30;22.10;;;;;;;2.34;84.90;100485.16;101100;1328;77513;-58
2022/12/21 00:05:47;;;;;;;38.70;22.50;;;;;;;2.29;84.73;100481.11;101124;1327;82281;-58
2022/12/21 00:08:30;;;;;;;38.30;21.50;;;;;;;2.25;84.71;100474.78;101141;1328;96820;-61
2022/12/21 00:11:09;;;;;;;35.60;21.20;;;;;;;2.16;84.96;100470.00;101099;1328;88217;-60
2022/12/21 00:13:53;;;;;;;40.20;22.50;;;;;;;2.06;84.94;100470.02;100878;1326;478998;-59
2022/12/21 00:16:40;;;;;;;36.90;20.70;;;;;;;2.01;85.12;100467.42;101296;1323;80275;-59
2022/12/21 00:19:17;;;;;;;40.10;22.90;;;;;;;1.95;85.26;100469.25;101314;1326;81986;-58
2022/12/21 00:21:57;;;;;;;35.70;21.10;;;;;;;1.94;85.28;100470.23;101266;1324;96494;-57
2022/12/21 00:24:37;;;;;;;36.80;21.40;;;;;;;1.93;85.32;100471.95;101248;1325;87610;-60
2022/12/21 00:27:22;;;;;;;35.70;21.40;;;;;;;1.88;85.53;100478.59;101261;1321;95698;-59
2022/12/21 00:30:02;;;;;;;38.50;21.70;;;;;;;1.86;85.61;100472.91;101202;1322;81355;-60
2022/12/21 00:32:41;;;;;;;38.60;21.80;;;;;;;1.86;85.67;100469.13;101497;1321;85073;-58
2022/12/21 00:35:16;;;;;;;38.90;21.50;;;;;;;1.88;85.71;100470.56;101525;1316;97008;-58
2022/12/21 00:37:58;;;;;;;34.00;21.50;;;;;;;1.90;85.79;100476.60;101502;1317;88025;-60
2022/12/21 00:40:36;;;;;;;35.10;21.30;;;;;;;1.91;85.78;100479.73;101472;1316;95825;-60
2022/12/21 00:43:18;;;;;;;36.60;20.50;;;;;;;1.95;85.88;100480.09;101517;1318;80805;-58
2022/12/21 00:45:58;;;;;;;36.20;21.80;;;;;;;1.95;85.99;100470.10;101494;1320;81655;-58
2022/12/21 00:48:38;;;;;;;38.70;22.00;;;;;;;1.93;86.02;100466.04;101537;1317;96750;-58
2022/12/21 00:51:22;;;;;;;35.20;20.20;;;;;;;1.94;86.09;100471.45;101508;1317;87166;-58
2022/12/21 00:54:00;;;;;;;37.50;21.00;;;;;;;2.00;85.99;100473.63;101580;1316;95235;-58
2022/12/21 00:56:42;;;;;;;37.80;21.30;;;;;;;2.04;85.95;100470.79;101560;1316;81275;-58
2022/12/21 00:59:24;;;;;;;35.50;21.40;;;;;;;2.09;85.97;100464.98;101542;1316;83223;-58
2022/12/21 01:02:03;;;;;;;36.70;20.80;;;;;;;2.15;85.86;100458.59;101641;1316;97651;-59
2022/12/21 01:04:47;;;;;;;34.60;20.70;;;;;;;2.16;85.89;100455.50;101572;1316;89305;-60
2022/12/21 01:07:26;;;;;;;37.40;21.30;;;;;;;2.19;85.81;100447.77;101535;1316;96129;-60
2022/12/21 01:10:06;;;;;;;34.80;20.90;;;;;;;2.23;85.79;100438.86;101527;1316;80215;-60
2022/12/21 01:12:48;;;;;;;37.80;21.50;;;;;;;2.24;85.71;100443.36;101561;1316;82952;-60
2022/12/21 01:15:33;;;;;;;36.60;22.20;;;;;;;2.28;85.73;100442.34;101494;1320;98311;-60
2022/12/21 01:18:13;;;;;;;;;;;;;;;2.29;85.44;100447.76;101490;1317;87973;-58
2022/12/21 01:20:57;;;;;;;40.00;21.90;;;;;;;2.29;85.65;100457.21;101573;1316;95555;-58
2022/12/21 01:23:37;;;;;;;37.90;20.50;;;;;;;2.24;85.54;100468.23;101538;1316;78149;-60
2022/12/21 01:26:16;;;;;;;33.20;20.10;;;;;;;2.20;85.63;100477.17;101512;1317;82874;-59
2022/12/21 01:28:54;;;;;;;37.60;22.20;;;;;;;2.18;85.48;100481.77;101462;1316;96134;-59
2022/12/21 01:31:35;;;;;;;38.60;22.00;;;;;;;2.16;85.45;100468.63;101470;1320;89119;-59
2022/12/21 01:34:15;;;;;;;36.10;20.90;;;;;;;2.18;85.39;100468.67;101469;1320;94201;-58
2022/12/21 01:36:50;;;;;;;36.90;19.40;;;;;;;2.16;85.55;100465.94;101814;1317;81699;-58
2022/12/21 01:39:33;;;;;;;37.70;20.10;;;;;;;2.21;85.40;100461.80;101987;1313;83360;-60
2022/12/21 01:42:15;;;;;;;35.40;20.40;;;;;;;2.22;85.48;100453.67;101941;1312;96858;-60
2022/12/21 01:45:15;;;;;;;37.10;20.70;;;;;;;2.23;85.36;100441.73;102016;1314;87764;-60
2022/12/21 01:47:53;;;;;;;36.70;20.60;;;;;;;2.22;85.36;100426.14;101966;1313;94957;-58
2022/12/21 01:50:41;;;;;;;33.50;19.70;;;;;;;2.25;85.39;100417.16;101973;1312;81427;-58
2022/12/21 01:53:32;;;;;;;33.40;20.10;;;;;;;2.29;85.23;100409.40;102005;1313;82970;-58
2022/12/21 01:56:21;;;;;;;31.60;19.30;;;;;;;2.29;85.16;100398.58;101951;1315;98589;-57
2022/12/21 01:59:09;;;;;;;31.80;19.20;;;;;;;2.31;85.14;100399.28;101966;1313;89604;-58
2022/12/21 02:01:43;;;;;;;;;;;;;;;2.33;85.06;100391.39;101985;1313;93507;-58
2022/12/21 02:04:28;;;;;;;34.20;20.00;;;;;;;2.35;85.03;100389.50;101947;1315;80349;-59
2022/12/21 02:07:11;;;;;;;33.50;19.70;;;;;;;2.38;84.85;100382.74;101938;1313;81272;-59
2022/12/21 02:09:55;;;;;;;35.80;21.40;;;;;;;2.38;84.74;100384.73;101986;1313;98325;-58
2022/12/21 02:12:38;;;;;;;32.80;19.90;;;;;;;2.35;84.79;100377.88;101970;1315;87814;-58
2022/12/21 02:15:14;;;;;;;36.70;21.90;;;;;;;2.32;84.69;100365.59;101935;1311;95161;-59
2022/12/21 02:18:07;;;;;;;37.00;21.60;;;;;;;2.33;84.62;100367.04;101957;1313;81847;-62
2022/12/21 02:21:24;;;;;;;32.50;18.80;;;;;;;2.32;84.45;100370.55;101983;1314;81948;-62
2022/12/21 02:24:52;;;;;;;36.00;20.40;;;;;;;2.29;84.58;100388.02;101964;1311;96903;-58
2022/12/21 02:28:18;;;;;;;30.00;17.70;;;;;;;2.31;84.58;100413.41;101959;1313;88918;-58
2022/12/21 02:31:15;;;;;;;36.70;19.80;;;;;;;2.32;84.72;100396.32;101866;1315;95544;-58
2022/12/21 02:34:18;;;;;;;31.40;18.20;;;;;;;2.36;84.54;100415.45;101948;1313;82165;-60
2022/12/21 02:37:09;;;;;;;33.90;19.20;;;;;;;2.36;84.61;100418.13;102005;1313;83737;-60
2022/12/21 02:39:58;;;;;;;34.10;18.20;;;;;;;2.36;84.55;100393.77;101982;1313;98576;-60
2022/12/21 02:45:57;;;;;;;30.00;18.30;;;;;;;2.42;84.56;100395.41;101905;1313;94056;-58
2022/12/21 02:48:48;;;;;;;32.40;19.60;;;;;;;2.46;84.51;100397.23;101931;1313;78950;-58
2022/12/21 02:51:36;;;;;;;35.00;20.80;;;;;;;2.45;84.49;100400.34;101960;1314;82872;-58
2022/12/21 02:54:16;;;;;;;32.40;19.30;;;;;;;2.42;84.26;100408.01;101932;1313;98274;-57
2022/12/21 02:56:57;;;;;;;34.70;20.30;;;;;;;2.38;84.27;100417.28;101911;1314;88849;-58
2022/12/21 02:59:41;;;;;;;36.00;20.40;;;;;;;2.34;84.19;100412.28;101916;1313;95508;-58
2022/12/21 03:06:34;;;;;;;32.20;18.00;;;;;;;2.25;84.38;100402.66;101362;1322;81704;-59
2022/12/21 03:09:29;;;;;;;36.40;20.70;;;;;;;2.17;84.40;100390.95;101357;1323;97842;-59
2022/12/21 03:12:19;;;;;;;37.20;20.90;;;;;;;2.19;84.43;100392.12;102052;1316;88349;-59
2022/12/21 03:15:06;;;;;;;33.50;19.80;;;;;;;2.18;84.49;100385.68;102002;1315;94152;-59
2022/12/21 03:17:47;;;;;;;33.90;19.70;;;;;;;2.20;84.43;100389.05;101983;1315;80357;-58
2022/12/21 03:20:34;;;;;;;32.60;19.80;;;;;;;2.23;84.47;100394.10;101981;1315;80976;-57
2022/12/21 03:23:22;;;;;;;36.10;20.40;;;;;;;2.28;84.37;100386.16;101961;1314;96191;-58
2022/12/21 03:26:07;;;;;;;33.30;19.50;;;;;;;2.30;84.38;100387.27;101920;1313;87979;-58
2022/12/21 03:28:56;;;;;;;31.40;19.60;;;;;;;2.26;84.51;100399.02;101941;1313;94436;-60
2022/12/21 03:31:49;;;;;;;32.50;19.50;;;;;;;2.28;84.41;100390.45;101931;1315;80850;-59
2022/12/21 03:34:35;;;;;;;33.40;18.90;;;;;;;2.34;84.38;100393.64;101927;1314;80332;-59
2022/12/21 03:37:18;;;;;;;34.90;20.00;;;;;;;2.28;84.41;100389.93;101952;1313;97487;-60
2022/12/21 03:40:02;;;;;;;34.60;20.00;;;;;;;2.30;84.47;100395.79;101951;1313;88426;-60
2022/12/21 03:42:49;;;;;;;35.30;21.30;;;;;;;2.26;84.59;100387.66;101892;1313;94853;-60
2022/12/21 03:45:36;;;;;;;34.70;21.50;;;;;;;2.24;84.52;100386.89;101919;1313;79387;-59
2022/12/21 03:48:20;;;;;;;33.00;20.10;;;;;;;2.25;84.33;100372.45;101945;1314;82523;-59
2022/12/21 03:51:07;;;;;;;35.80;20.20;;;;;;;2.24;84.38;100344.42;101905;1313;97088;-59
2022/12/21 03:53:53;;;;;;;34.80;19.90;;;;;;;2.25;84.26;100339.77;102005;1314;88675;-60
2022/12/21 03:56:40;;;;;;;36.30;21.40;;;;;;;2.20;84.31;100350.64;101945;1317;95157;-59
2022/12/21 03:59:24;;;;;;;33.20;19.70;;;;;;;2.22;84.35;100341.21;101988;1313;81605;-57
2022/12/21 04:02:15;;;;;;;35.60;19.90;;;;;;;2.23;84.27;100318.02;102014;1311;82907;-58
2022/12/21 04:04:59;;;;;;;36.00;19.60;;;;;;;2.25;84.33;100315.89;101965;1317;97216;-59
2022/12/21 04:07:38;;;;;;;35.20;19.50;;;;;;;2.26;84.38;100308.15;101995;1313;89090;-57
2022/12/21 04:10:19;;;;;;;40.40;21.50;;;;;;;2.23;84.35;100286.13;101946;1317;94267;-58
2022/12/21 04:12:56;;;;;;;35.30;20.20;;;;;;;2.21;84.29;100281.84;101957;1315;82090;-59
2022/12/21 04:21:21;;;;;;;32.20;19.20;;;;;;;2.21;84.14;100312.05;101927;1313;87863;-60
2022/12/21 04:29:55;;;;;;;36.40;20.60;;;;;;;2.12;84.30;100310.41;101950;1315;82730;-60
2022/12/21 04:32:38;;;;;;;33.80;19.70;;;;;;;2.09;84.25;100323.56;101939;1313;96254;-60
2022/12/21 04:35:17;;;;;;;34.00;20.50;;;;;;;2.10;84.22;100332.58;101951;1313;87985;-61
2022/12/21 04:37:57;;;;;;;37.30;21.10;;;;;;;2.09;84.29;100336.95;101948;1313;94504;-61
2022/12/21 04:40:37;;;;;;;40.50;23.00;;;;;;;2.01;84.26;100321.82;101954;1313;78626;-61
2022/12/21 04:43:17;;;;;;;36.20;20.40;;;;;;;2.02;84.33;100324.23;101999;1313;83476;-57
2022/12/21 04:46:07;;;;;;;37.50;21.00;;;;;;;2.00;84.16;100326.25;101970;1315;98655;-58
2022/12/21 04:48:47;;;;;;;37.20;20.90;;;;;;;1.98;84.42;100327.84;101940;1315;89215;-59
2022/12/21 04:51:26;;;;;;;36.00;20.70;;;;;;;1.96;84.28;100323.73;101974;1313;94648;-59
2022/12/21 04:54:11;;;;;;;34.70;19.90;;;;;;;1.95;84.30;100320.33;101972;1314;81352;-57
2022/12/21 04:56:51;;;;;;;34.00;19.90;;;;;;;1.96;84.42;100310.04;101965;1313;82542;-58
2022/12/21 04:59:28;;;;;;;36.80;20.80;;;;;;;1.95;84.43;100309.81;101955;1313;98112;-59
2022/12/21 05:02:07;;;;;;;37.50;22.30;;;;;;;1.98;84.41;100306.81;101931;1314;88921;-59
2022/12/21 05:04:47;;;;;;;36.30;20.40;;;;;;;1.99;84.38;100311.34;101953;1314;93623;-58
2022/12/21 05:07:24;;;;;;;35.00;20.00;;;;;;;2.01;84.37;100302.50;101873;1314;81712;-59
2022/12/21 05:10:15;;;;;;;39.60;20.90;;;;;;;2.01;84.43;100292.93;101950;1312;82577;-58
2022/12/21 05:13:02;;;;;;;37.30;20.90;;;;;;;2.01;84.34;100279.43;101981;1314;98912;-58
2022/12/21 05:15:44;;;;;;;38.90;21.00;;;;;;;2.02;84.35;100273.79;101936;1314;87584;-58
2022/12/21 05:18:20;;;;;;;36.40;20.80;;;;;;;2.05;84.32;100276.91;101978;1314;94043;-58
2022/12/21 05:21:04;;;;;;;38.60;22.30;;;;;;;2.03;84.37;100277.66;101920;1316;78999;-58
2022/12/21 05:23:46;;;;;;;37.70;21.20;;;;;;;2.02;84.36;100276.66;101969;1313;80747;-58
2022/12/21 05:26:29;;;;;;;42.90;22.40;;;;;;;2.01;84.18;100268.63;101949;1313;98451;-59
2022/12/21 05:29:13;;;;;;;36.60;21.20;;;;;;;1.97;84.14;100268.61;102005;1313;89414;-59
2022/12/21 05:31:56;;;;;;;38.00;23.00;;;;;;;1.92;84.26;100264.97;101974;1314;95702;-57
2022/12/21 05:34:38;;;;;;;41.20;23.30;;;;;;;1.89;84.15;100268.80;101974;1311;82152;-58
2022/12/21 05:37:20;;;;;;;39.20;21.80;;;;;;;1.88;84.17;100276.87;101971;1313;82220;-59
2022/12/21 05:40:02;;;;;;;37.70;21.30;;;;;;;1.90;84.35;100274.37;101930;1314;97175;-58
2022/12/21 05:42:42;;;;;;;36.50;21.40;;;;;;;1.90;84.29;100268.69;101976;1315;88154;-60
2022/12/21 05:45:23;;;;;;;41.20;20.80;;;;;;;1.93;84.46;100278.54;101935;1311;95591;-60
2022/12/21 05:48:06;;;;;;;38.00;21.50;;;;;;;1.99;84.33;100288.67;101959;1313;80916;-60
2022/12/21 05:50:52;;;;;;;36.90;20.90;;;;;;;1.99;84.46;100305.66;101960;1314;82818;-60
2022/12/21 05:53:37;;;;;;;34.80;21.40;;;;;;;2.02;84.46;100316.24;101962;1315;99094;-60
2022/12/21 05:56:14;;;;;;;42.10;22.90;;;;;;;2.04;84.47;100318.34;101939;1313;87202;-60
2022/12/21 05:58:51;;;;;;;37.40;21.20;;;;;;;2.05;84.45;100316.13;101898;1313;95403;-58
2022/12/21 06:01:30;;;;;;;37.50;20.60;;;;;;;2.10;84.35;100310.90;101925;1315;81438;-58
2022/12/21 06:04:07;;;;;;;37.80;21.80;;;;;;;2.13;84.46;100319.17;101941;1316;81244;-58
2022/12/21 06:06:46;;;;;;;38.50;21.10;;;;;;;2.13;84.34;100330.04;101954;1316;99209;-57
2022/12/21 06:09:27;;;;;;;36.20;22.40;;;;;;;2.17;84.13;100334.26;101967;1314;88755;-59
2022/12/21 06:12:08;;;;;;;41.40;22.90;;;;;;;2.19;84.16;100331.92;101941;1313;94863;-60
2022/12/21 06:14:48;;;;;;;39.30;23.20;;;;;;;2.16;84.15;100336.52;101984;1313;79373;-60
2022/12/21 06:17:29;;;;;;;35.30;21.20;;;;;;;2.10;83.92;100326.33;101958;1315;82945;-59
2022/12/21 06:20:12;;;;;;;36.70;21.20;;;;;;;2.05;84.14;100325.06;101960;1314;98932;-58
2022/12/21 06:22:55;;;;;;;38.50;21.20;;;;;;;2.04;84.00;100319.11;101986;1313;88405;-60
2022/12/21 06:25:32;;;;;;;;;;;;;;;2.05;84.03;100330.02;101976;1313;93623;-59
2022/12/21 06:28:08;;;;;;;44.80;22.60;;;;;;;2.05;84.03;100334.61;101980;1317;80409;-60
2022/12/21 06:30:50;;;;;;;37.60;21.20;;;;;;;2.06;84.09;100332.58;102000;1313;82546;-59
2022/12/21 06:33:26;;;;;;;42.20;22.20;;;;;;;2.07;84.22;100340.65;101970;1315;98551;-59
2022/12/21 06:36:07;;;;;;;38.70;21.30;;;;;;;2.11;84.15;100345.93;101956;1314;87672;-59
2022/12/21 06:38:48;;;;;;;37.50;21.90;;;;;;;2.16;84.14;100342.36;101964;1313;92029;-58
2022/12/21 06:41:29;;;;;;;36.90;20.80;;;;;;;2.17;84.03;100341.34;101834;1313;78595;-57
2022/12/21 06:44:06;;;;;;;41.40;22.80;;;;;;;2.16;84.18;100339.83;101932;1313;82518;-58
2022/12/21 06:46:50;;;;;;;41.40;21.70;;;;;;;2.18;84.22;100344.27;101949;1315;96583;-58
2022/12/21 06:49:33;;;;;;;39.10;22.80;;;;;;;2.21;84.12;100341.00;101934;1313;88327;-60
2022/12/21 06:52:13;;;;;;;39.00;22.60;;;;;;;2.23;84.07;100331.77;101925;1313;95693;-58
2022/12/21 06:54:48;;;;;;;38.20;22.40;;;;;;;2.22;84.02;100345.88;101916;1313;79654;-58
2022/12/21 06:57:26;;;;;;;38.70;22.90;;;;;;;2.22;83.93;100342.70;101956;1316;82778;-60
2022/12/21 07:00:02;;;;;;;40.70;22.40;;;;;;;2.21;84.04;100330.52;101965;1317;99469;-60
2022/12/21 07:02:43;;;;;;;36.50;22.40;;;;;;;2.18;84.05;100327.02;101946;1314;89078;-61
2022/12/21 07:05:29;;;;;;;43.60;22.60;;;;;;;2.15;83.83;100325.13;101945;1317;95949;-60
2022/12/21 07:08:07;;;;;;;34.80;20.60;;;;;;;2.16;83.85;100326.54;101990;1314;80434;-58
2022/12/21 07:10:55;;;;;;;34.70;21.00;;;;;;;2.14;83.92;100315.01;102011;1313;83471;-58
2022/12/21 07:13:41;;;;;;;42.20;21.90;;;;;;;2.14;83.92;100311.09;101948;1312;98997;-58
2022/12/21 07:16:19;;;;;;;39.40;21.80;;;;;;;2.09;84.00;100300.55;101993;1313;88528;-58
2022/12/21 07:18:54;;;;;;;36.20;20.00;;;;;;;2.11;84.00;100301.26;101978;1313;93655;-59
2022/12/21 07:21:39;;;;;;;37.50;21.30;;;;;;;2.18;84.02;100305.54;101909;1315;80339;-60
2022/12/21 07:24:15;;;;;;;35.00;20.70;;;;;;;2.22;83.83;100299.01;101875;1311;81434;-60
2022/12/21 07:26:56;;;;;;;37.30;20.30;;;;;;;2.20;83.87;100294.14;101911;1315;97421;-60
2022/12/21 07:29:43;;;;;;;39.10;22.00;;;;;;;2.18;83.92;100294.88;101931;1317;89504;-58
2022/12/21 07:32:27;;;;;;;;;;;;;;;2.23;84.02;100296.73;101941;1313;94472;-57
2022/12/21 07:35:09;;;;;;;39.50;22.00;;;;;;;2.31;83.97;100296.58;101946;1316;77912;-58
2022/12/21 07:37:46;;;;;;;41.20;24.20;;;;;;;2.33;84.05;100291.38;101943;1314;84525;-57
2022/12/21 07:40:29;;;;;;;44.30;26.20;;;;;;;2.36;83.96;100290.77;101876;1313;98932;-57
2022/12/21 07:43:12;;;;;;;38.30;21.80;;;;;;;2.39;83.91;100299.37;101918;1313;89326;-58
2022/12/21 07:45:46;;;;;;;35.70;21.30;;;;;;;2.39;83.83;100305.54;101962;1315;94894;-57
2022/12/21 07:48:28;;;;;;;36.90;21.30;;;;;;;2.43;83.71;100312.15;101993;1315;79225;-57
2022/12/21 07:51:08;;;;;;;34.70;19.80;;;;;;;2.43;83.85;100313.89;101945;1317;82177;-58
2022/12/21 07:53:51;;;;;;;37.90;21.00;;;;;;;2.44;83.88;100313.16;102017;1313;97698;-58
2022/12/21 07:56:30;;;;;;;34.80;19.50;;;;;;;2.47;83.80;100308.75;102011;1313;87617;-58
2022/12/21 07:59:07;;;;;;;28.60;18.10;;;;;;;2.47;83.74;100306.09;101924;1313;94808;-57
2022/12/21 08:01:46;;;;;;;32.90;18.70;;;;;;;2.55;83.78;100299.69;101935;1314;82441;-64
2022/12/21 08:04:29;;;;;;;32.90;19.20;;;;;;;2.59;83.77;100290.93;101958;1313;82317;-56
2022/12/21 08:07:09;;;;;;;34.50;20.20;;;;;;;2.68;83.60;100288.98;101962;1314;98013;-58
2022/12/21 08:09:51;;;;;;;34.70;20.60;;;;;;;2.73;83.54;100291.00;101940;1313;89462;-58
2022/12/21 08:12:33;;;;;;;37.00;19.70;;;;;;;2.74;83.29;100294.88;101962;1313;94811;-60
2022/12/21 08:15:12;;;;;;;32.50;19.20;;;;;;;2.68;83.31;100295.91;101760;1313;78251;-59
2022/12/21 08:17:53;;;;;;;34.40;19.60;;;;;;;2.69;83.17;100293.86;101970;1313;83239;-60
2022/12/21 08:20:33;;;;;;;33.20;19.20;;;;;;;2.76;83.16;100289.31;101966;1313;98895;-59
2022/12/21 08:23:15;;;;;;;37.40;21.20;;;;;;;2.82;82.92;100286.98;101941;1315;87521;-59
2022/12/21 08:26:03;;;;;;;33.40;20.70;;;;;;;2.87;83.00;100283.12;101899;1313;95441;-60
2022/12/21 08:28:41;;;;;;;32.60;19.50;;;;;;;2.90;82.80;100282.30;101978;1313;80054;-59
2022/12/21 08:31:22;;;;;;;35.80;20.20;;;;;;;2.94;82.84;100281.05;101888;1315;84246;-58
2022/12/21 08:34:02;;;;;;;39.50;21.50;;;;;;;2.91;82.90;100276.84;101940;1314;98299;-59
2022/12/21 08:36:44;;;;;;;32.70;19.60;;;;;;;2.93;82.86;100277.97;101946;1314;88610;-59
2022/12/21 08:39:27;;;;;;;34.90;20.10;;;;;;;3.01;82.73;100280.56;101985;1313;96192;-59
2022/12/21 08:42:08;;;;;;;31.30;19.70;;;;;;;3.12;82.80;100281.85;101961;1314;78545;-58
2022/12/21 08:44:48;;;;;;;34.00;20.90;;;;;;;3.21;82.54;100280.85;101990;1314;83343;-58
2022/12/21 08:47:29;;;;;;;37.80;20.60;;;;;;;3.26;82.55;100278.70;102000;1314;97122;-60
2022/12/21 08:50:06;;;;;;;40.20;21.70;;;;;;;3.31;82.42;100278.27;101982;1313;90483;-59
2022/12/21 08:52:48;;;;;;;39.10;21.20;;;;;;;3.32;81.96;100274.74;101948;1313;95874;-59
2022/12/21 08:55:25;;;;;;;34.60;20.90;;;;;;;3.32;82.11;100267.98;102006;1311;77867;-59
2022/12/21 08:58:13;;;;;;;36.00;20.80;;;;;;;3.36;81.94;100272.73;101961;1317;83887;-59
2022/12/21 09:00:54;;;;;;;37.50;21.90;;;;;;;3.40;81.90;100268.64;101966;1314;97187;-59
2022/12/21 09:03:38;;;;;;;36.20;22.00;;;;;;;3.43;81.66;100264.05;101967;1314;88060;-58
2022/12/21 09:06:13;;;;;;;38.70;22.70;;;;;;;3.42;81.48;100267.70;101861;1315;92938;-57
2022/12/21 09:08:49;;;;;;;33.00;21.00;;;;;;;3.40;81.58;100260.98;101928;1313;80688;-59
2022/12/21 09:11:29;;;;;;;37.30;21.30;;;;;;;3.44;81.45;100259.15;101913;1313;82830;-60
2022/12/21 09:14:07;;;;;;;35.30;21.10;;;;;;;3.48;81.60;100251.10;101940;1313;98778;-58
2022/12/21 09:16:51;;;;;;;36.90;21.80;;;;;;;3.59;81.63;100247.38;101929;1314;88246;-58
2022/12/21 09:19:32;;;;;;;36.70;21.30;;;;;;;3.70;81.57;100240.21;101902;1315;94799;-58
2022/12/21 09:22:16;;;;;;;33.50;20.30;;;;;;;3.84;81.40;100237.23;101847;1314;78006;-59
2022/12/21 09:24:54;;;;;;;33.90;20.40;;;;;;;3.88;81.30;100243.78;101896;1317;81857;-59
2022/12/21 09:27:32;;;;;;;35.60;20.10;;;;;;;3.94;81.16;100240.52;101967;1313;97811;-59
2022/12/21 09:30:13;;;;;;;37.50;22.00;;;;;;;3.99;81.07;100237.55;101915;1313;88571;-59
2022/12/21 09:32:58;;;;;;;35.80;22.10;;;;;;;3.99;80.93;100239.16;101955;1317;94852;-60
2022/12/21 09:35:36;;;;;;;;;;;;;;;4.00;80.96;100236.00;101937;1317;79738;-60
2022/12/21 09:38:18;;;;;;;33.10;21.10;;;;;;;3.98;80.87;100244.36;101945;1313;81586;-59
2022/12/21 09:41:16;;;;;;;35.30;21.40;;;;;;;4.05;80.71;100249.02;101944;1314;98698;-56
2022/12/21 09:44:21;;;;;;;34.20;21.80;;;;;;;4.08;80.59;100246.27;101938;1317;89663;-57
2022/12/21 09:47:15;;;;;;;39.80;22.00;;;;;;;4.09;80.54;100244.84;101908;1315;94668;-58
2022/12/21 09:49:59;;;;;;;36.90;21.70;;;;;;;4.05;80.37;100246.73;101897;1317;79850;-60
2022/12/21 09:52:45;;;;;;;38.10;20.90;;;;;;;4.09;80.24;100247.45;101960;1314;82867;-61
2022/12/21 09:55:31;;;;;;;36.00;21.70;;;;;;;4.12;80.18;100245.54;101887;1317;99595;-60
2022/12/21 09:58:23;;;;;;;37.40;21.80;;;;;;;4.16;80.25;100240.40;101872;1317;89105;-59
2022/12/21 10:01:18;;;;;;;35.30;20.90;;;;;;;4.19;80.03;100235.86;101869;1313;96163;-59
2022/12/21 10:04:17;;;;;;;36.30;21.10;;;;;;;4.23;79.99;100232.78;101893;1314;78059;-58
2022/12/21 10:07:19;;;;;;;36.30;22.10;;;;;;;4.33;79.86;100231.61;101906;1313;81394;-58
2022/12/21 10:10:18;;;;;;;37.40;22.50;;;;;;;4.52;79.92;100221.70;101915;1313;99037;-59
2022/12/21 10:13:14;;;;;;;36.00;21.80;;;;;;;4.79;79.85;100222.84;101936;1317;87991;-60
2022/12/21 10:16:03;;;;;;;35.00;21.90;;;;;;;4.85;79.59;100221.83;101882;1313;94935;-60
2022/12/21 10:18:48;;;;;;;35.60;21.60;;;;;;;4.88;79.57;100221.54;101939;1317;79321;-58
2022/12/21 10:21:40;;;;;;;32.90;20.60;;;;;;;4.90;79.22;100224.19;101964;1313;82236;-58
2022/12/21 10:24:24;;;;;;;35.50;21.60;;;;;;;4.77;78.97;100223.16;101963;1313;97612;-58
2022/12/21 10:27:13;;;;;;;34.20;20.60;;;;;;;4.76;79.00;100216.30;101960;1314;87757;-59
2022/12/21 10:30:00;;;;;;;35.80;21.90;;;;;;;4.75;79.08;100213.90;101897;1317;94579;-60
2022/12/21 10:32:37;;;;;;;;;;;;;;;4.80;78.96;100209.30;101979;1315;79301;-59
2022/12/21 10:35:32;;;;;;;32.40;20.40;;;;;;;4.92;78.87;100213.97;101918;1313;82598;-59
2022/12/21 10:38:17;;;;;;;33.00;20.40;;;;;;;4.97;78.55;100214.13;101948;1313;97210;-59
2022/12/21 10:40:57;;;;;;;33.20;21.10;;;;;;;5.03;78.41;100208.32;101986;1317;88448;-61
2022/12/21 10:43:47;;;;;;;34.40;21.00;;;;;;;5.04;78.17;100207.48;101897;1315;94476;-59
2022/12/21 10:46:31;;;;;;;36.10;21.20;;;;;;;5.11;78.11;100205.89;101894;1313;78874;-59
2022/12/21 10:49:23;;;;;;;34.00;20.80;;;;;;;5.25;78.14;100199.59;101939;1317;83066;-57
2022/12/21 10:52:38;;;;;;;35.70;22.10;;;;;;;5.28;78.04;100200.89;101897;1313;97935;-58
2022/12/21 10:55:42;;;;;;;33.80;20.60;;;;;;;5.45;77.93;100201.77;101922;1316;87734;-58
2022/12/21 10:58:26;;;;;;;36.50;22.40;;;;;;;5.58;77.65;100197.48;101952;1313;95114;-60
2022/12/21 11:01:29;;;;;;;34.00;21.40;;;;;;;5.63;77.42;100196.13;101895;1313;77891;-59
2022/12/21 11:04:27;;;;;;;34.80;21.50;;;;;;;5.61;77.27;100200.11;101939;1313;82779;-61
2022/12/21 11:07:27;;;;;;;39.20;22.40;;;;;;;5.53;77.09;100201.63;101919;1314;98371;-58
2022/12/21 11:10:22;;;;;;;35.50;21.40;;;;;;;5.47;77.22;100196.21;101967;1317;88724;-60
2022/12/21 11:12:59;;;;;;;;;;;;;;;5.36;77.18;100201.99;101967;1313;94713;-61
2022/12/21 11:15:51;;;;;;;36.60;21.50;;;;;;;5.30;77.08;100198.20;101902;1315;78325;-59
2022/12/21 11:18:47;;;;;;;37.90;22.30;;;;;;;5.21;76.75;100191.41;101967;1316;81634;-59
2022/12/21 11:21:41;;;;;;;31.10;19.60;;;;;;;5.11;77.10;100188.25;101993;1313;99607;-58
2022/12/21 11:24:26;;;;;;;37.60;21.60;;;;;;;4.98;77.25;100191.18;101930;1317;86686;-61
2022/12/21 11:27:14;;;;;;;36.80;22.00;;;;;;;4.98;77.37;100189.04;101919;1313;96121;-60
2022/12/21 11:29:57;;;;;;;38.00;22.60;;;;;;;4.95;77.41;100187.29;101871;1317;80190;-60
2022/12/21 11:32:44;;;;;;;42.60;24.40;;;;;;;5.00;77.36;100187.11;101918;1315;82636;-61
2022/12/21 11:35:34;;;;;;;37.60;22.50;;;;;;;5.14;77.36;100191.71;101912;1315;98529;-61
2022/12/21 11:38:18;;;;;;;39.20;23.20;;;;;;;5.24;77.49;100187.26;101976;1317;89016;-60
2022/12/21 11:41:09;;;;;;;38.00;22.40;;;;;;;5.27;77.35;100195.42;101944;1315;95252;-60
2022/12/21 11:43:52;;;;;;;34.70;21.00;;;;;;;5.22;77.31;100187.23;101982;1315;77856;-61
2022/12/21 11:46:51;;;;;;;37.40;23.00;;;;;;;5.21;77.30;100188.39;101850;1317;83329;-60
2022/12/21 11:50:09;;;;;;;36.20;22.40;;;;;;;5.22;77.29;100184.86;101945;1313;97867;-58
2022/12/21 11:53:13;;;;;;;39.60;20.70;;;;;;;5.19;77.07;100182.77;101927;1313;87920;-58
2022/12/21 11:56:17;;;;;;;38.30;22.80;;;;;;;5.11;77.27;100185.03;101846;1315;95567;-58
2022/12/21 11:59:23;;;;;;;38.90;22.30;;;;;;;5.14;77.25;100176.73;101900;1313;78941;-60
2022/12/21 12:02:22;;;;;;;38.40;22.00;;;;;;;5.21;77.24;100173.58;101867;1317;82861;-60
2022/12/21 12:05:19;;;;;;;36.50;22.40;;;;;;;5.31;77.43;100168.92;101898;1316;96757;-57
2022/12/21 12:08:04;;;;;;;34.20;21.90;;;;;;;5.34;77.39;100170.59;101918;1312;88114;-58
2022/12/21 12:11:14;;;;;;;35.90;21.00;;;;;;;5.26;77.41;100168.54;101933;1317;95595;-58
2022/12/21 12:14:51;;;;;;;35.30;20.40;;;;;;;5.18;77.21;100165.90;101924;1315;79833;-59
2022/12/21 12:17:50;;;;;;;36.60;20.70;;;;;;;5.07;77.32;100150.52;101917;1317;81863;-59
2022/12/21 12:20:48;;;;;;;34.00;20.30;;;;;;;5.06;77.07;100143.09;101896;1315;98405;-59
2022/12/21 12:23:40;;;;;;;31.60;19.50;;;;;;;5.10;76.99;100144.47;101916;1317;87766;-60
2022/12/21 12:26:26;;;;;;;34.60;20.30;;;;;;;5.14;77.09;100148.83;101933;1315;95004;-60
2022/12/21 12:29:30;;;;;;;32.40;20.90;;;;;;;5.14;76.92;100148.30;101904;1315;78503;-59
2022/12/21 12:32:30;;;;;;;35.40;21.90;;;;;;;5.14;77.02;100140.98;101956;1313;82885;-58
2022/12/21 12:35:52;;;;;;;33.20;21.10;;;;;;;5.07;76.87;100134.19;101910;1313;97262;-61
2022/12/21 12:38:49;;;;;;;33.20;20.00;;;;;;;5.00;76.92;100136.36;101873;1317;86657;-62
2022/12/21 12:41:47;;;;;;;35.60;20.70;;;;;;;4.92;77.02;100135.45;101895;1313;94829;-61
2022/12/21 12:44:39;;;;;;;36.70;21.10;;;;;;;4.83;77.01;100145.17;101963;1315;78146;-61
2022/12/21 12:47:30;;;;;;;33.70;20.30;;;;;;;4.76;76.97;100144.63;101944;1313;83347;-61
2022/12/21 12:50:23;;;;;;;34.00;19.80;;;;;;;4.69;76.91;100130.56;101926;1313;98352;-61
2022/12/21 12:53:17;;;;;;;31.70;19.40;;;;;;;4.64;77.19;100127.48;101973;1317;89199;-60